Topinabee, Michigan
Current Conditions -  °F | °C
As of 9:54 PM on Monday 20 Oct 2014 (Local Time) from KPLN Reporting Station
Overcast Overcast  
Wind Chill: 43°   Ceiling: 1100
Heat Index: 47°   Visibility: 10mi
Dew Point: 43°   Wind: 9mph
Humidity: 86%   Direction: 330°NNW
Pressure: 29.91"   Gusts: NA
Location:  45.48°N, 84.6°W
Report Text: KPLN 210154Z AUTO 33008KT 10SM OVC011 08/06 A2991 RMK AO2 RAB06E16 SLP134 P0000 T00830061
Loading
Personal Weather Stations






























Interactive Weather Map
Tropical Storm Tracking
New forecast layout! Learn more

10-Day Weather Forecast

Advertisements
Track Severe Weather on mobile